sensor_id;sensor_type;location;lat;lon;timestamp;pressure;altitude;pressure_sealevel;temperature;humidity
28927;BME280;16038;47.692;9.400;2022-11-21T00:00:49;96126.09;;;4.40;100.00
28927;BME280;16038;47.692;9.400;2022-11-21T00:03:16;96126.22;;;4.31;100.00
28927;BME280;16038;47.692;9.400;2022-11-21T00:05:44;96117.75;;;4.33;100.00
28927;BME280;16038;47.692;9.400;2022-11-21T00:08:12;96126.88;;;4.40;100.00
28927;BME280;16038;47.692;9.400;2022-11-21T00:10:38;96111.88;;;4.43;100.00
28927;BME280;16038;47.692;9.400;2022-11-21T00:13:05;96108.25;;;4.39;100.00
28927;BME280;16038;47.692;9.400;2022-11-21T00:15:32;96106.69;;;4.38;100.00
28927;BME280;16038;47.692;9.400;2022-11-21T00:18:01;96106.78;;;4.42;100.00
28927;BME280;16038;47.692;9.400;2022-11-21T00:20:27;96102.59;;;4.44;100.00
28927;BME280;16038;47.692;9.400;2022-11-21T00:22:52;96102.47;;;4.40;100.00
28927;BME280;16038;47.692;9.400;2022-11-21T00:25:17;96100.22;;;4.43;100.00
28927;BME280;16038;47.692;9.400;2022-11-21T00:27:43;96099.31;;;4.38;100.00
28927;BME280;16038;47.692;9.400;2022-11-21T00:30:10;96096.28;;;4.40;100.00
28927;BME280;16038;47.692;9.400;2022-11-21T00:32:35;96105.63;;;4.43;100.00
28927;BME280;16038;47.692;9.400;2022-11-21T00:35:01;96099.22;;;4.47;100.00
28927;BME280;16038;47.692;9.400;2022-11-21T00:37:26;96093.09;;;4.50;100.00
28927;BME280;16038;47.692;9.400;2022-11-21T00:39:52;96091.28;;;4.54;100.00
28927;BME280;16038;47.692;9.400;2022-11-21T00:42:17;96106.19;;;4.60;100.00
28927;BME280;16038;47.692;9.400;2022-11-21T00:44:42;96106.19;;;4.60;100.00
28927;BME280;16038;47.692;9.400;2022-11-21T00:47:08;96100.19;;;4.55;100.00
28927;BME280;16038;47.692;9.400;2022-11-21T00:49:33;96102.56;;;4.56;100.00
28927;BME280;16038;47.692;9.400;2022-11-21T00:51:58;96092.63;;;4.60;100.00
28927;BME280;16038;47.692;9.400;2022-11-21T00:54:24;96092.63;;;4.60;100.00
28927;BME280;16038;47.692;9.400;2022-11-21T00:56:49;96081.78;;;4.60;100.00
28927;BME280;16038;47.692;9.400;2022-11-21T00:59:15;96077.06;;;4.57;100.00
28927;BME280;16038;47.692;9.400;2022-11-21T01:01:40;96073.63;;;4.60;100.00
28927;BME280;16038;47.692;9.400;2022-11-21T01:04:05;96069.25;;;4.56;100.00
28927;BME280;16038;47.692;9.400;2022-11-21T01:06:31;96070.03;;;4.56;100.00
28927;BME280;16038;47.692;9.400;2022-11-21T01:08:57;96072.75;;;4.56;100.00
28927;BME280;16038;47.692;9.400;2022-11-21T01:11:22;96073.09;;;4.55;100.00
28927;BME280;16038;47.692;9.400;2022-11-21T01:13:48;96070.81;;;4.57;100.00
28927;BME280;16038;47.692;9.400;2022-11-21T01:16:19;96075.47;;;4.56;100.00
28927;BME280;16038;47.692;9.400;2022-11-21T01:18:45;96069.81;;;4.62;100.00
28927;BME280;16038;47.692;9.400;2022-11-21T01:21:21;96061.19;;;4.72;100.00
28927;BME280;16038;47.692;9.400;2022-11-21T01:23:47;96052.47;;;4.66;100.00
28927;BME280;16038;47.692;9.400;2022-11-21T01:26:16;96055.19;;;4.66;100.00
28927;BME280;16038;47.692;9.400;2022-11-21T01:28:42;96053.19;;;4.63;100.00
28927;BME280;16038;47.692;9.400;2022-11-21T01:31:12;96048.31;;;4.69;100.00
28927;BME280;16038;47.692;9.400;2022-11-21T01:33:39;96048.53;;;4.64;100.00
28927;BME280;16038;47.692;9.400;2022-11-21T01:36:26;96047.56;;;4.56;100.00
28927;BME280;16038;47.692;9.400;2022-11-21T01:38:54;96054.19;;;4.58;100.00
28927;BME280;16038;47.692;9.400;2022-11-21T01:41:27;96043.13;;;4.64;100.00
28927;BME280;16038;47.692;9.400;2022-11-21T01:43:56;96039.53;;;4.59;100.00
28927;BME280;16038;47.692;9.400;2022-11-21T01:46:22;96027.19;;;4.62;100.00
28927;BME280;16038;47.692;9.400;2022-11-21T01:48:59;96019.94;;;4.66;100.00
28927;BME280;16038;47.692;9.400;2022-11-21T01:51:57;96022.16;;;4.76;100.00
28927;BME280;16038;47.692;9.400;2022-11-21T01:54:30;96008.28;;;4.66;100.00
28927;BME280;16038;47.692;9.400;2022-11-21T01:59:38;96001.69;;;4.79;100.00
28927;BME280;16038;47.692;9.400;2022-11-21T02:02:07;95997.94;;;4.84;100.00
28927;BME280;16038;47.692;9.400;2022-11-21T02:04:35;95987.53;;;4.86;100.00
28927;BME280;16038;47.692;9.400;2022-11-21T02:07:03;95989.69;;;4.80;100.00
28927;BME280;16038;47.692;9.400;2022-11-21T02:09:32;95989.59;;;4.76;100.00
28927;BME280;16038;47.692;9.400;2022-11-21T02:12:09;95982.34;;;4.81;100.00
28927;BME280;16038;47.692;9.400;2022-11-21T02:14:37;95985.53;;;4.83;100.00
28927;BME280;16038;47.692;9.400;2022-11-21T02:17:05;95972.72;;;4.83;100.00
28927;BME280;16038;47.692;9.400;2022-11-21T02:19:54;95971.69;;;4.88;100.00
28927;BME280;16038;47.692;9.400;2022-11-21T02:27:31;95962.41;;;4.89;100.00
28927;BME280;16038;47.692;9.400;2022-11-21T02:29:57;95962.84;;;4.91;100.00
28927;BME280;16038;47.692;9.400;2022-11-21T02:32:30;95972.59;;;4.92;100.00
28927;BME280;16038;47.692;9.400;2022-11-21T02:34:56;95972.94;;;4.90;100.00
28927;BME280;16038;47.692;9.400;2022-11-21T02:37:22;95969.63;;;4.97;100.00
28927;BME280;16038;47.692;9.400;2022-11-21T02:39:48;95954.81;;;4.94;100.00
28927;BME280;16038;47.692;9.400;2022-11-21T02:42:29;95971.97;;;4.98;100.00
28927;BME280;16038;47.692;9.400;2022-11-21T02:47:37;95959.28;;;5.03;100.00
28927;BME280;16038;47.692;9.400;2022-11-21T02:50:18;95953.78;;;5.15;100.00
28927;BME280;16038;47.692;9.400;2022-11-21T02:52:44;95943.78;;;5.03;100.00
28927;BME280;16038;47.692;9.400;2022-11-21T02:55:10;95939.84;;;5.01;100.00
28927;BME280;16038;47.692;9.400;2022-11-21T02:57:39;95925.63;;;4.91;100.00
28927;BME280;16038;47.692;9.400;2022-11-21T03:00:05;95937.66;;;4.90;100.00
28927;BME280;16038;47.692;9.400;2022-11-21T03:02:31;95918.94;;;5.01;100.00
28927;BME280;16038;47.692;9.400;2022-11-21T03:04:56;95917.25;;;4.96;100.00
28927;BME280;16038;47.692;9.400;2022-11-21T03:07:22;95919.19;;;4.96;100.00
28927;BME280;16038;47.692;9.400;2022-11-21T03:09:47;95909.19;;;5.00;100.00
28927;BME280;16038;47.692;9.400;2022-11-21T03:12:13;95910.94;;;4.92;100.00
28927;BME280;16038;47.692;9.400;2022-11-21T03:14:38;95914.44;;;4.93;100.00
28927;BME280;16038;47.692;9.400;2022-11-21T03:17:04;95912.44;;;4.90;100.00
28927;BME280;16038;47.692;9.400;2022-11-21T03:19:29;95904.84;;;4.95;100.00
28927;BME280;16038;47.692;9.400;2022-11-21T03:21:55;95905.34;;;5.01;100.00
28927;BME280;16038;47.692;9.400;2022-11-21T03:24:21;95891.34;;;4.99;100.00
28927;BME280;16038;47.692;9.400;2022-11-21T03:26:47;95897.47;;;4.96;100.00
28927;BME280;16038;47.692;9.400;2022-11-21T03:29:12;95898.00;;;5.02;100.00
28927;BME280;16038;47.692;9.400;2022-11-21T03:31:38;95890.09;;;4.96;100.00
28927;BME280;16038;47.692;9.400;2022-11-21T03:34:03;95890.84;;;4.93;100.00
28927;BME280;16038;47.692;9.400;2022-11-21T03:36:29;95880.06;;;4.97;100.00
28927;BME280;16038;47.692;9.400;2022-11-21T03:38:55;95876.88;;;4.95;100.00
28927;BME280;16038;47.692;9.400;2022-11-21T03:41:24;95875.66;;;4.92;100.00
28927;BME280;16038;47.692;9.400;2022-11-21T03:44:01;95879.00;;;5.02;100.00
28927;BME280;16038;47.692;9.400;2022-11-21T03:46:28;95879.00;;;5.02;100.00
28927;BME280;16038;47.692;9.400;2022-11-21T03:48:54;95870.69;;;4.94;100.00
28927;BME280;16038;47.692;9.400;2022-11-21T03:51:19;95867.19;;;4.94;100.00
28927;BME280;16038;47.692;9.400;2022-11-21T03:53:45;95873.91;;;5.00;100.00
28927;BME280;16038;47.692;9.400;2022-11-21T03:56:11;95863.97;;;5.04;100.00
28927;BME280;16038;47.692;9.400;2022-11-21T03:58:36;95867.19;;;4.94;100.00
28927;BME280;16038;47.692;9.400;2022-11-21T04:01:02;95865.25;;;4.94;100.00
28927;BME280;16038;47.692;9.400;2022-11-21T04:03:27;95844.78;;;4.97;100.00
28927;BME280;16038;47.692;9.400;2022-11-21T04:05:53;95865.44;;;5.02;100.00
28927;BME280;16038;47.692;9.400;2022-11-21T04:08:18;95868.50;;;5.00;100.00
28927;BME280;16038;47.692;9.400;2022-11-21T04:10:51;95866.41;;;4.93;100.00
28927;BME280;16038;47.692;9.400;2022-11-21T04:13:18;95863.22;;;4.91;100.00
28927;BME280;16038;47.692;9.400;2022-11-21T04:15:44;95868.69;;;4.75;100.00
28927;BME280;16038;47.692;9.400;2022-11-21T04:18:11;95868.69;;;4.75;100.00
28927;BME280;16038;47.692;9.400;2022-11-21T04:20:37;95857.81;;;4.75;100.00
28927;BME280;16038;47.692;9.400;2022-11-21T04:23:03;95866.13;;;4.67;100.00
28927;BME280;16038;47.692;9.400;2022-11-21T04:25:29;95871.56;;;4.67;100.00
28927;BME280;16038;47.692;9.400;2022-11-21T04:27:58;95864.53;;;4.66;100.00
28927;BME280;16038;47.692;9.400;2022-11-21T04:30:24;95858.50;;;4.72;100.00
28927;BME280;16038;47.692;9.400;2022-11-21T04:32:50;95868.31;;;4.61;100.00
28927;BME280;16038;47.692;9.400;2022-11-21T04:35:16;95844.84;;;4.69;100.00
28927;BME280;16038;47.692;9.400;2022-11-21T04:37:41;95861.38;;;4.64;100.00
28927;BME280;16038;47.692;9.400;2022-11-21T04:40:07;95843.91;;;4.61;100.00
28927;BME280;16038;47.692;9.400;2022-11-21T04:42:33;95860.59;;;4.63;100.00
28927;BME280;16038;47.692;9.400;2022-11-21T04:44:58;95856.16;;;4.71;100.00
28927;BME280;16038;47.692;9.400;2022-11-21T04:47:23;95863.16;;;4.72;100.00
28927;BME280;16038;47.692;9.400;2022-11-21T04:49:49;95859.63;;;4.71;100.00
28927;BME280;16038;47.692;9.400;2022-11-21T04:52:14;95866.66;;;4.72;100.00
28927;BME280;16038;47.692;9.400;2022-11-21T04:54:40;95859.97;;;4.70;100.00
28927;BME280;16038;47.692;9.400;2022-11-21T04:57:05;95866.66;;;4.72;100.00
28927;BME280;16038;47.692;9.400;2022-11-21T04:59:31;95878.53;;;4.68;100.00
28927;BME280;16038;47.692;9.400;2022-11-21T05:01:57;95847.22;;;4.70;100.00
28927;BME280;16038;47.692;9.400;2022-11-21T05:04:22;95872.84;;;4.73;100.00
28927;BME280;16038;47.692;9.400;2022-11-21T05:06:47;95871.81;;;4.77;100.00
28927;BME280;16038;47.692;9.400;2022-11-21T05:09:13;95877.94;;;4.74;100.00
28927;BME280;16038;47.692;9.400;2022-11-21T05:11:38;95871.63;;;4.70;100.00
28927;BME280;16038;47.692;9.400;2022-11-21T05:14:22;95868.03;;;4.66;100.00
28927;BME280;16038;47.692;9.400;2022-11-21T05:16:51;95867.88;;;4.75;100.00
28927;BME280;16038;47.692;9.400;2022-11-21T05:19:16;95864.63;;;4.69;100.00
28927;BME280;16038;47.692;9.400;2022-11-21T05:21:42;95869.03;;;4.74;100.00
28927;BME280;16038;47.692;9.400;2022-11-21T05:24:07;95865.06;;;4.71;100.00
28927;BME280;16038;47.692;9.400;2022-11-21T05:26:32;95865.16;;;4.75;100.00
28927;BME280;16038;47.692;9.400;2022-11-21T05:28:58;95850.97;;;4.66;100.00
28927;BME280;16038;47.692;9.400;2022-11-21T05:31:23;95840.13;;;4.66;100.00
28927;BME280;16038;47.692;9.400;2022-11-21T05:33:49;95861.03;;;4.65;100.00
28927;BME280;16038;47.692;9.400;2022-11-21T05:36:14;95855.63;;;4.65;100.00
28927;BME280;16038;47.692;9.400;2022-11-21T05:38:39;95845.63;;;4.69;100.00
28927;BME280;16038;47.692;9.400;2022-11-21T05:41:05;95842.66;;;4.74;100.00
28927;BME280;16038;47.692;9.400;2022-11-21T05:43:30;95864.72;;;4.73;100.00
28927;BME280;16038;47.692;9.400;2022-11-21T05:46:15;95861.41;;;4.79;100.00
28927;BME280;16038;47.692;9.400;2022-11-21T05:48:42;95869.72;;;4.87;100.00
28927;BME280;16038;47.692;9.400;2022-11-21T05:51:07;95866.22;;;4.86;100.00
28927;BME280;16038;47.692;9.400;2022-11-21T05:53:34;95861.84;;;4.82;100.00
28927;BME280;16038;47.692;9.400;2022-11-21T05:56:14;95853.09;;;4.72;100.00
28927;BME280;16038;47.692;9.400;2022-11-21T05:58:40;95864.19;;;4.67;100.00
28927;BME280;16038;47.692;9.400;2022-11-21T06:01:07;95872.94;;;4.60;100.00
28927;BME280;16038;47.692;9.400;2022-11-21T06:03:35;95879.06;;;4.57;100.00
28927;BME280;16038;47.692;9.400;2022-11-21T06:06:05;95877.38;;;4.53;100.00
28927;BME280;16038;47.692;9.400;2022-11-21T06:08:33;95871.78;;;4.46;100.00
28927;BME280;16038;47.692;9.400;2022-11-21T06:10:58;95884.34;;;4.38;100.00
28927;BME280;16038;47.692;9.400;2022-11-21T06:13:26;95882.88;;;4.40;100.00
28927;BME280;16038;47.692;9.400;2022-11-21T06:16:09;95884.78;;;4.40;100.00
28927;BME280;16038;47.692;9.400;2022-11-21T06:18:39;95875.88;;;4.39;100.00
28927;BME280;16038;47.692;9.400;2022-11-21T06:23:37;95883.44;;;4.34;100.00
28927;BME280;16038;47.692;9.400;2022-11-21T06:26:05;95885.63;;;4.28;100.00
28927;BME280;16038;47.692;9.400;2022-11-21T06:28:33;95892.97;;;4.28;100.00
28927;BME280;16038;47.692;9.400;2022-11-21T06:31:10;95892.63;;;4.29;100.00
28927;BME280;16038;47.692;9.400;2022-11-21T06:33:36;95892.19;;;4.27;100.00
28927;BME280;16038;47.692;9.400;2022-11-21T06:36:03;95891.00;;;4.40;100.00
28927;BME280;16038;47.692;9.400;2022-11-21T06:38:29;95886.09;;;4.46;100.00
28927;BME280;16038;47.692;9.400;2022-11-21T06:40:55;95881.13;;;4.48;100.00
28927;BME280;16038;47.692;9.400;2022-11-21T06:43:21;95892.34;;;4.47;100.00
28927;BME280;16038;47.692;9.400;2022-11-21T06:45:46;95898.09;;;4.45;100.00
28927;BME280;16038;47.692;9.400;2022-11-21T06:48:11;95896.19;;;4.46;100.00
28927;BME280;16038;47.692;9.400;2022-11-21T06:50:37;95899.16;;;4.56;100.00
28927;BME280;16038;47.692;9.400;2022-11-21T06:53:03;95891.03;;;4.56;100.00
28927;BME280;16038;47.692;9.400;2022-11-21T06:55:29;95903.72;;;4.52;100.00
28927;BME280;16038;47.692;9.400;2022-11-21T06:57:58;95896.59;;;4.48;100.00
28927;BME280;16038;47.692;9.400;2022-11-21T07:00:27;95896.91;;;4.58;100.00
28927;BME280;16038;47.692;9.400;2022-11-21T07:02:54;95900.75;;;4.57;100.00
28927;BME280;16038;47.692;9.400;2022-11-21T07:05:23;95897.09;;;4.66;100.00
28927;BME280;16038;47.692;9.400;2022-11-21T07:07:48;95898.75;;;4.70;100.00
28927;BME280;16038;47.692;9.400;2022-11-21T07:10:14;95907.94;;;4.66;100.00
28927;BME280;16038;47.692;9.400;2022-11-21T07:12:39;95908.13;;;4.73;100.00
28927;BME280;16038;47.692;9.400;2022-11-21T07:15:23;95905.50;;;4.76;100.00
28927;BME280;16038;47.692;9.400;2022-11-21T07:17:49;95910.41;;;4.71;100.00
28927;BME280;16038;47.692;9.400;2022-11-21T07:20:14;95903.03;;;4.71;100.00
28927;BME280;16038;47.692;9.400;2022-11-21T07:22:40;95914.50;;;4.81;100.00
28927;BME280;16038;47.692;9.400;2022-11-21T07:25:05;95915.13;;;4.74;100.00
28927;BME280;16038;47.692;9.400;2022-11-21T07:27:31;95914.31;;;4.57;100.00
28927;BME280;16038;47.692;9.400;2022-11-21T07:29:56;95907.47;;;4.48;100.00
28927;BME280;16038;47.692;9.400;2022-11-21T07:32:25;95916.38;;;4.48;100.00
28927;BME280;16038;47.692;9.400;2022-11-21T07:34:52;95918.78;;;4.37;100.00
28927;BME280;16038;47.692;9.400;2022-11-21T07:37:17;95913.03;;;4.39;100.00
28927;BME280;16038;47.692;9.400;2022-11-21T07:39:43;95900.00;;;4.29;100.00
28927;BME280;16038;47.692;9.400;2022-11-21T07:42:08;95905.03;;;4.30;100.00
28927;BME280;16038;47.692;9.400;2022-11-21T07:44:34;95904.69;;;4.32;100.00
28927;BME280;16038;47.692;9.400;2022-11-21T07:46:59;95901.09;;;4.28;100.00
28927;BME280;16038;47.692;9.400;2022-11-21T07:49:25;95908.13;;;4.29;100.00
28927;BME280;16038;47.692;9.400;2022-11-21T07:51:50;95892.94;;;4.40;100.00
28927;BME280;16038;47.692;9.400;2022-11-21T07:54:16;95903.09;;;4.43;100.00
28927;BME280;16038;47.692;9.400;2022-11-21T07:56:41;95887.75;;;4.35;100.00
28927;BME280;16038;47.692;9.400;2022-11-21T07:59:06;95888.22;;;4.53;100.00
28927;BME280;16038;47.692;9.400;2022-11-21T08:01:32;95885.06;;;4.51;100.00
28927;BME280;16038;47.692;9.400;2022-11-21T08:03:57;95882.66;;;4.62;100.00
28927;BME280;16038;47.692;9.400;2022-11-21T08:06:22;95885.44;;;4.65;100.00
28927;BME280;16038;47.692;9.400;2022-11-21T08:08:52;95892.00;;;4.64;100.00
28927;BME280;16038;47.692;9.400;2022-11-21T08:11:18;95896.56;;;4.60;100.00
28927;BME280;16038;47.692;9.400;2022-11-21T08:13:44;95900.66;;;4.54;100.00
28927;BME280;16038;47.692;9.400;2022-11-21T08:16:10;95886.50;;;4.60;100.00
28927;BME280;16038;47.692;9.400;2022-11-21T08:18:36;95888.41;;;4.60;100.00
28927;BME280;16038;47.692;9.400;2022-11-21T08:21:02;95895.44;;;4.61;100.00
28927;BME280;16038;47.692;9.400;2022-11-21T08:23:28;95887.09;;;4.70;100.00
28927;BME280;16038;47.692;9.400;2022-11-21T08:25:54;95899.16;;;4.56;100.00
28927;BME280;16038;47.692;9.400;2022-11-21T08:28:19;95893.06;;;4.59;100.00
28927;BME280;16038;47.692;9.400;2022-11-21T08:30:44;95892.97;;;4.56;100.00
28927;BME280;16038;47.692;9.400;2022-11-21T08:33:10;95879.50;;;4.59;100.00
28927;BME280;16038;47.692;9.400;2022-11-21T08:35:36;95872.69;;;4.66;100.00
28927;BME280;16038;47.692;9.400;2022-11-21T08:38:02;95861.06;;;4.97;100.00
28927;BME280;16038;47.692;9.400;2022-11-21T08:40:29;95868.41;;;5.12;100.00
28927;BME280;16038;47.692;9.400;2022-11-21T08:42:59;95870.25;;;5.24;100.00
28927;BME280;16038;47.692;9.400;2022-11-21T08:45:25;95862.97;;;5.28;100.00
28927;BME280;16038;47.692;9.400;2022-11-21T08:47:52;95864.91;;;5.63;100.00
28927;BME280;16038;47.692;9.400;2022-11-21T08:50:18;95872.00;;;5.68;100.00
28927;BME280;16038;47.692;9.400;2022-11-21T08:52:43;95870.72;;;5.81;100.00
28927;BME280;16038;47.692;9.400;2022-11-21T08:55:08;95868.66;;;5.74;100.00
28927;BME280;16038;47.692;9.400;2022-11-21T08:57:38;95870.91;;;5.72;100.00
28927;BME280;16038;47.692;9.400;2022-11-21T09:00:04;95867.50;;;5.75;100.00
28927;BME280;16038;47.692;9.400;2022-11-21T09:02:29;95866.28;;;5.73;100.00
28927;BME280;16038;47.692;9.400;2022-11-21T09:04:55;95863.16;;;5.71;100.00
28927;BME280;16038;47.692;9.400;2022-11-21T09:07:20;95861.84;;;5.84;100.00
28927;BME280;16038;47.692;9.400;2022-11-21T09:09:46;95863.06;;;5.67;100.00
28927;BME280;16038;47.692;9.400;2022-11-21T09:12:11;95858.91;;;5.73;100.00
28927;BME280;16038;47.692;9.400;2022-11-21T09:14:37;95857.63;;;5.67;100.00
28927;BME280;16038;47.692;9.400;2022-11-21T09:17:21;95854.06;;;5.83;100.00
28927;BME280;16038;47.692;9.400;2022-11-21T09:20:05;95853.47;;;6.09;100.00
28927;BME280;16038;47.692;9.400;2022-11-21T09:22:31;95852.31;;;6.29;100.00
28927;BME280;16038;47.692;9.400;2022-11-21T09:24:56;95850.22;;;6.42;100.00
28927;BME280;16038;47.692;9.400;2022-11-21T09:27:21;95848.44;;;6.50;100.00
28927;BME280;16038;47.692;9.400;2022-11-21T09:29:47;95848.50;;;6.54;100.00
28927;BME280;16038;47.692;9.400;2022-11-21T09:32:12;95847.28;;;6.74;100.00
28927;BME280;16038;47.692;9.400;2022-11-21T09:34:38;95846.38;;;6.89;100.00
28927;BME280;16038;47.692;9.400;2022-11-21T09:37:03;95840.06;;;7.32;100.00
28927;BME280;16038;47.692;9.400;2022-11-21T09:39:28;95844.56;;;7.20;100.00
28927;BME280;16038;47.692;9.400;2022-11-21T09:47:29;95847.16;;;6.67;100.00
28927;BME280;16038;47.692;9.400;2022-11-21T09:52:45;95838.88;;;7.33;100.00
28927;BME280;16038;47.692;9.400;2022-11-21T09:55:22;95835.22;;;7.75;100.00
28927;BME280;16038;47.692;9.400;2022-11-21T09:57:50;95829.09;;;7.55;100.00
28927;BME280;16038;47.692;9.400;2022-11-21T10:00:23;95823.13;;;7.45;100.00
28927;BME280;16038;47.692;9.400;2022-11-21T10:02:53;95806.78;;;7.45;100.00
28927;BME280;16038;47.692;9.400;2022-11-21T10:05:33;95809.22;;;7.54;100.00
28927;BME280;16038;47.692;9.400;2022-11-21T10:08:06;95803.31;;;7.79;100.00
28927;BME280;16038;47.692;9.400;2022-11-21T10:14:00;95800.00;;;7.62;100.00
28927;BME280;16038;47.692;9.400;2022-11-21T10:16:48;95787.44;;;7.54;100.00
28927;BME280;16038;47.692;9.400;2022-11-21T10:22:06;95772.41;;;6.84;100.00
28927;BME280;16038;47.692;9.400;2022-11-21T10:24:43;95755.34;;;7.14;100.00
28927;BME280;16038;47.692;9.400;2022-11-21T10:27:36;95741.91;;;7.24;100.00
28927;BME280;16038;47.692;9.400;2022-11-21T10:30:16;95731.25;;;7.16;100.00
28927;BME280;16038;47.692;9.400;2022-11-21T10:32:45;95728.16;;;7.44;100.00
28927;BME280;16038;47.692;9.400;2022-11-21T10:35:14;95727.38;;;7.77;100.00
28927;BME280;16038;47.692;9.400;2022-11-21T10:38:25;95724.03;;;8.73;100.00
28927;BME280;16038;47.692;9.400;2022-11-21T10:41:01;95725.13;;;8.65;100.00
28927;BME280;16038;47.692;9.400;2022-11-21T10:46:11;95709.66;;;8.39;100.00
28927;BME280;16038;47.692;9.400;2022-11-21T10:48:36;95707.91;;;9.09;99.33
28927;BME280;16038;47.692;9.400;2022-11-21T10:54:07;95692.38;;;10.37;84.03
28927;BME280;16038;47.692;9.400;2022-11-21T10:56:52;95688.78;;;10.19;90.08
28927;BME280;16038;47.692;9.400;2022-11-21T10:59:24;95679.34;;;9.87;87.97
28927;BME280;16038;47.692;9.400;2022-11-21T11:02:00;95670.75;;;9.92;82.29
28927;BME280;16038;47.692;9.400;2022-11-21T11:04:27;95658.28;;;10.13;81.22
28927;BME280;16038;47.692;9.400;2022-11-21T11:06:53;95656.69;;;9.90;79.33
28927;BME280;16038;47.692;9.400;2022-11-21T11:12:38;95642.25;;;10.15;79.09
28927;BME280;16038;47.692;9.400;2022-11-21T11:14:39;95637.97;;;10.21;80.09
28927;BME280;16038;47.692;9.400;2022-11-21T11:17:04;95632.47;;;9.96;79.78
28927;BME280;16038;47.692;9.400;2022-11-21T11:19:29;95625.47;;;10.67;74.71
28927;BME280;16038;47.692;9.400;2022-11-21T11:21:55;95623.88;;;10.87;74.17
28927;BME280;16038;47.692;9.400;2022-11-21T11:24:25;95610.63;;;10.50;74.14
28927;BME280;16038;47.692;9.400;2022-11-21T11:27:01;95606.66;;;10.83;70.68
28927;BME280;16038;47.692;9.400;2022-11-21T11:29:31;95601.88;;;11.16;68.62
28927;BME280;16038;47.692;9.400;2022-11-21T11:32:15;95601.97;;;10.69;72.19
28927;BME280;16038;47.692;9.400;2022-11-21T11:34:58;95592.50;;;11.06;68.66
28927;BME280;16038;47.692;9.400;2022-11-21T11:37:31;95589.53;;;10.32;73.07
28927;BME280;16038;47.692;9.400;2022-11-21T11:45:56;95560.16;;;10.58;71.69
28927;BME280;16038;47.692;9.400;2022-11-21T11:48:44;95561.53;;;11.24;67.94
28927;BME280;16038;47.692;9.400;2022-11-21T11:51:28;95553.81;;;10.90;70.17
28927;BME280;16038;47.692;9.400;2022-11-21T11:54:03;95550.78;;;10.56;70.02
28927;BME280;16038;47.692;9.400;2022-11-21T11:56:34;95549.09;;;10.94;68.29
28927;BME280;16038;47.692;9.400;2022-11-21T12:01:54;95537.38;;;11.71;65.48
28927;BME280;16038;47.692;9.400;2022-11-21T12:04:23;95542.19;;;12.92;60.60
28927;BME280;16038;47.692;9.400;2022-11-21T12:07:04;95532.88;;;14.02;54.76
28927;BME280;16038;47.692;9.400;2022-11-21T12:14:44;95509.75;;;14.66;50.69
28927;BME280;16038;47.692;9.400;2022-11-21T12:17:38;95492.97;;;13.63;51.05
28927;BME280;16038;47.692;9.400;2022-11-21T12:20:27;95489.50;;;13.28;52.47
28927;BME280;16038;47.692;9.400;2022-11-21T12:22:54;95484.47;;;14.28;49.24
28927;BME280;16038;47.692;9.400;2022-11-21T12:25:27;95480.72;;;14.38;49.75
28927;BME280;16038;47.692;9.400;2022-11-21T12:27:54;95474.44;;;14.38;50.01
28927;BME280;16038;47.692;9.400;2022-11-21T12:38:22;95448.88;;;16.19;44.57
28927;BME280;16038;47.692;9.400;2022-11-21T12:41:17;95443.59;;;15.06;45.61
28927;BME280;16038;47.692;9.400;2022-11-21T12:52:21;95414.31;;;13.42;52.20
28927;BME280;16038;47.692;9.400;2022-11-21T13:03:37;95378.94;;;12.89;51.97
28927;BME280;16038;47.692;9.400;2022-11-21T13:06:05;95374.84;;;11.11;55.26
28927;BME280;16038;47.692;9.400;2022-11-21T13:08:37;95368.38;;;9.70;60.68
28927;BME280;16038;47.692;9.400;2022-11-21T13:16:35;95351.63;;;9.50;67.42
28927;BME280;16038;47.692;9.400;2022-11-21T13:21:48;95337.03;;;10.10;62.21
28927;BME280;16038;47.692;9.400;2022-11-21T13:27:36;95328.63;;;9.08;64.76
28927;BME280;16038;47.692;9.400;2022-11-21T13:32:44;95304.78;;;8.58;68.42
28927;BME280;16038;47.692;9.400;2022-11-21T13:38:04;95292.31;;;8.75;69.46
28927;BME280;16038;47.692;9.400;2022-11-21T13:40:36;95284.88;;;9.47;67.73
28927;BME280;16038;47.692;9.400;2022-11-21T13:45:44;95287.19;;;9.45;62.99
28927;BME280;16038;47.692;9.400;2022-11-21T13:51:45;95264.53;;;9.55;62.54
28927;BME280;16038;47.692;9.400;2022-11-21T13:57:42;95264.16;;;8.35;71.21
28927;BME280;16038;47.692;9.400;2022-11-21T14:03:06;95249.38;;;8.32;74.23
28927;BME280;16038;47.692;9.400;2022-11-21T14:08:22;95232.63;;;8.30;76.11
28927;BME280;16038;47.692;9.400;2022-11-21T14:10:52;95224.81;;;8.39;75.63
28927;BME280;16038;47.692;9.400;2022-11-21T14:13:25;95222.09;;;8.32;76.04
28927;BME280;16038;47.692;9.400;2022-11-21T14:18:34;95217.28;;;7.75;79.75
28927;BME280;16038;47.692;9.400;2022-11-21T14:21:00;95206.31;;;7.61;80.51
28927;BME280;16038;47.692;9.400;2022-11-21T14:23:33;95187.97;;;7.51;80.17
28927;BME280;16038;47.692;9.400;2022-11-21T14:26:04;95187.53;;;7.38;82.95
28927;BME280;16038;47.692;9.400;2022-11-21T14:28:35;95184.00;;;7.30;82.46
28927;BME280;16038;47.692;9.400;2022-11-21T14:36:11;95176.47;;;7.02;86.41
28927;BME280;16038;47.692;9.400;2022-11-21T14:38:45;95176.06;;;6.96;87.54
28927;BME280;16038;47.692;9.400;2022-11-21T14:46:36;95157.56;;;6.61;92.94
28927;BME280;16038;47.692;9.400;2022-11-21T14:51:36;95151.22;;;6.42;94.29
28927;BME280;16038;47.692;9.400;2022-11-21T14:54:02;95151.97;;;6.36;95.39
28927;BME280;16038;47.692;9.400;2022-11-21T14:56:29;95147.63;;;6.27;97.40
28927;BME280;16038;47.692;9.400;2022-11-21T14:59:00;95138.22;;;6.18;97.85
28927;BME280;16038;47.692;9.400;2022-11-21T15:01:30;95139.34;;;6.13;99.18
28927;BME280;16038;47.692;9.400;2022-11-21T15:04:05;95142.38;;;6.04;100.00
28927;BME280;16038;47.692;9.400;2022-11-21T15:06:40;95122.53;;;6.00;100.00
28927;BME280;16038;47.692;9.400;2022-11-21T15:09:11;95111.56;;;5.93;100.00
28927;BME280;16038;47.692;9.400;2022-11-21T15:14:21;95096.66;;;5.76;100.00
28927;BME280;16038;47.692;9.400;2022-11-21T15:16:50;95090.06;;;5.73;100.00